Time;durP1;ratioP1;P1;durP2;ratioP2;P2;SDS_P1;SDS_P2;PMS_P1;PMS_P2;Temp;Humidity;BMP_temperature;BMP_pressure;BME280_temperature;BME280_humidity;BME280_pressure;Samples;Min_cycle;Max_cycle;Signal;HPM_P1;HPM_P2
2021/04/20 00:00:09;;;;;;;;;;;19.80;50.30;;;;;;5049295;28;19932;-56
2021/04/20 00:02:35;;;;;;;;;;;19.80;50.30;;;;;;5033490;28;19947;-55
2021/04/20 00:05:03;;;;;;;;;;;19.80;50.30;;;;;;5045793;28;19956;-54
2021/04/20 00:07:29;;;;;;;;;;;19.70;50.30;;;;;;5042313;28;20366;-56
2021/04/20 00:09:55;;;;;;;;;;;19.80;50.30;;;;;;5048329;28;19924;-55
2021/04/20 00:12:21;;;;;;;;;;;19.70;50.30;;;;;;5047984;28;19925;-56
2021/04/20 00:14:48;;;;;;;;;;;19.70;50.30;;;;;;5047691;28;19933;-55
2021/04/20 00:17:14;;;;;;;;;;;19.70;50.30;;;;;;5046226;28;20301;-55
2021/04/20 00:19:40;;;;;;;;;;;19.70;50.40;;;;;;5040004;28;20550;-55
2021/04/20 00:22:06;;;;;;;;;;;19.70;50.40;;;;;;5039567;28;20401;-55
2021/04/20 00:24:32;;;;;;;;;;;19.70;50.40;;;;;;5045273;28;20299;-54
2021/04/20 00:26:59;;;;;;;;;;;19.70;50.40;;;;;;5030058;28;19925;-56
2021/04/20 00:29:25;;;;;;;;;;;19.60;50.40;;;;;;5044367;28;19932;-55
2021/04/20 00:31:51;;;;;;;;;;;19.60;50.40;;;;;;5039770;28;19925;-57
2021/04/20 00:34:17;;;;;;;;;;;19.60;50.40;;;;;;5045569;28;19964;-55
2021/04/20 00:36:43;;;;;;;;;;;19.60;50.40;;;;;;5048393;28;19925;-55
2021/04/20 00:39:10;;;;;;;;;;;19.60;50.40;;;;;;5047538;28;19925;-55
2021/04/20 00:41:36;;;;;;;;;;;19.60;50.40;;;;;;5047307;28;19929;-55
2021/04/20 00:44:02;;;;;;;;;;;19.60;50.40;;;;;;5041537;28;19925;-56
2021/04/20 00:46:28;;;;;;;;;;;19.60;50.40;;;;;;5042049;28;19933;-56
2021/04/20 00:48:55;;;;;;;;;;;19.60;51.00;;;;;;5044966;28;19929;-55
2021/04/20 00:51:21;;;;;;;;;;;19.60;50.50;;;;;;5047281;28;19924;-55
2021/04/20 00:53:47;;;;;;;;;;;19.60;50.50;;;;;;5031022;28;19933;-57
2021/04/20 00:56:18;;;;;;;;;;;19.60;50.50;;;;;;5044567;28;19929;-55
2021/04/20 00:58:45;;;;;;;;;;;19.60;50.50;;;;;;5046838;28;20767;-55
2021/04/20 01:01:17;;;;;;;;;;;19.50;50.50;;;;;;5040552;28;19932;-56
2021/04/20 01:03:43;;;;;;;;;;;19.50;50.50;;;;;;5044662;28;21930;-56
2021/04/20 01:06:09;;;;;;;;;;;19.50;50.50;;;;;;5040760;28;19929;-56
2021/04/20 01:08:36;;;;;;;;;;;19.50;50.50;;;;;;5032829;28;19929;-56
2021/04/20 01:11:09;;;;;;;;;;;19.50;50.50;;;;;;5040313;28;19929;-56
2021/04/20 01:13:35;;;;;;;;;;;19.50;50.50;;;;;;5040061;28;19925;-56
2021/04/20 01:16:01;;;;;;;;;;;19.50;50.50;;;;;;5039693;28;20354;-55
2021/04/20 01:18:29;;;;;;;;;;;19.50;50.50;;;;;;5047948;28;20561;-56
2021/04/20 01:21:03;;;;;;;;;;;19.50;50.50;;;;;;5045918;28;19931;-55
2021/04/20 01:23:37;;;;;;;;;;;19.50;50.60;;;;;;5046644;28;19925;-55
2021/04/20 01:26:03;;;;;;;;;;;19.50;50.60;;;;;;5038402;28;20285;-55
2021/04/20 01:28:29;;;;;;;;;;;19.40;50.60;;;;;;5039537;28;19924;-55
2021/04/20 01:30:56;;;;;;;;;;;19.50;50.50;;;;;;5045351;28;19925;-55
2021/04/20 01:33:23;;;;;;;;;;;19.40;50.50;;;;;;5034438;28;19954;-56
2021/04/20 01:35:49;;;;;;;;;;;19.40;50.60;;;;;;5038852;28;20004;-55
2021/04/20 01:38:17;;;;;;;;;;;19.50;50.50;;;;;;5052372;28;19928;-54
2021/04/20 01:40:43;;;;;;;;;;;19.40;50.50;;;;;;5043153;28;20297;-56
2021/04/20 01:43:12;;;;;;;;;;;19.40;50.50;;;;;;5047741;28;19929;-54
2021/04/20 01:45:39;;;;;;;;;;;19.40;50.60;;;;;;5050241;28;19925;-56
2021/04/20 01:48:06;;;;;;;;;;;19.40;50.50;;;;;;5049998;28;19928;-56
2021/04/20 01:50:32;;;;;;;;;;;19.40;50.50;;;;;;5044720;28;19925;-56
2021/04/20 01:52:58;;;;;;;;;;;19.40;50.60;;;;;;5045744;28;20300;-56
2021/04/20 01:55:24;;;;;;;;;;;19.30;50.50;;;;;;5030901;28;20379;-56
2021/04/20 01:57:53;;;;;;;;;;;19.40;50.50;;;;;;5049651;28;20396;-56
2021/04/20 02:00:20;;;;;;;;;;;19.40;50.60;;;;;;5048090;28;19933;-57
2021/04/20 02:02:46;;;;;;;;;;;19.30;50.50;;;;;;5044839;28;19932;-56
2021/04/20 02:05:12;;;;;;;;;;;19.30;50.60;;;;;;5038032;28;20365;-56
2021/04/20 02:07:39;;;;;;;;;;;19.30;50.60;;;;;;5045745;28;19929;-56
2021/04/20 02:10:06;;;;;;;;;;;19.30;50.50;;;;;;5040759;28;19975;-56
2021/04/20 02:12:34;;;;;;;;;;;19.30;50.50;;;;;;5049349;28;19925;-56
2021/04/20 02:15:01;;;;;;;;;;;19.30;50.50;;;;;;5050480;28;19925;-56
2021/04/20 02:17:28;;;;;;;;;;;19.30;50.60;;;;;;5041216;28;20478;-56
2021/04/20 02:19:54;;;;;;;;;;;19.30;50.60;;;;;;5049264;28;19928;-56
2021/04/20 02:22:21;;;;;;;;;;;19.30;50.60;;;;;;5038252;28;19929;-55
2021/04/20 02:24:47;;;;;;;;;;;19.30;50.60;;;;;;5050159;28;19929;-60
2021/04/20 02:27:14;;;;;;;;;;;19.30;50.60;;;;;;5052619;28;19941;-54
2021/04/20 02:29:40;;;;;;;;;;;19.20;50.50;;;;;;5050197;28;19932;-55
2021/04/20 02:32:06;;;;;;;;;;;19.30;50.60;;;;;;5045807;28;19925;-55
2021/04/20 02:34:33;;;;;;;;;;;19.30;50.60;;;;;;5033715;28;19944;-56
2021/04/20 02:36:59;;;;;;;;;;;19.20;50.50;;;;;;5049462;28;20431;-56
2021/04/20 02:39:26;;;;;;;;;;;19.20;50.50;;;;;;5042065;28;19928;-55
2021/04/20 02:41:53;;;;;;;;;;;19.20;50.50;;;;;;5042852;28;20494;-55
2021/04/20 02:44:19;;;;;;;;;;;19.20;50.50;;;;;;5056685;28;19932;-55
2021/04/20 02:46:45;;;;;;;;;;;19.20;50.50;;;;;;5041533;28;19932;-55
2021/04/20 02:49:12;;;;;;;;;;;19.20;50.50;;;;;;5047311;28;19936;-56
2021/04/20 02:51:43;;;;;;;;;;;19.20;50.50;;;;;;5046042;28;19929;-55
2021/04/20 02:54:10;;;;;;;;;;;19.20;50.60;;;;;;5040599;28;19925;-55
2021/04/20 02:56:36;;;;;;;;;;;19.20;50.60;;;;;;5046876;28;19925;-56
2021/04/20 02:59:04;;;;;;;;;;;19.20;50.60;;;;;;5050650;28;20269;-55
2021/04/20 03:01:37;;;;;;;;;;;19.20;50.60;;;;;;5039427;28;19925;-56
2021/04/20 03:04:03;;;;;;;;;;;19.10;50.60;;;;;;5044219;28;20290;-55
2021/04/20 03:06:30;;;;;;;;;;;19.10;50.70;;;;;;5052177;28;19925;-55
2021/04/20 03:08:56;;;;;;;;;;;19.10;50.80;;;;;;5049801;28;19924;-56
2021/04/20 03:11:23;;;;;;;;;;;19.10;50.90;;;;;;5048423;28;19925;-55
2021/04/20 03:13:50;;;;;;;;;;;19.10;50.90;;;;;;5047190;28;20318;-56
2021/04/20 03:16:28;;;;;;;;;;;19.10;50.80;;;;;;5049300;28;19928;-57
2021/04/20 03:18:55;;;;;;;;;;;19.10;50.80;;;;;;5045449;28;19933;-56
2021/04/20 03:21:22;;;;;;;;;;;19.10;51.00;;;;;;5044952;28;19931;-56
2021/04/20 03:23:53;;;;;;;;;;;19.10;51.00;;;;;;5029472;28;19925;-56
2021/04/20 03:26:25;;;;;;;;;;;19.10;51.10;;;;;;5056244;28;19975;-57
2021/04/20 03:28:52;;;;;;;;;;;19.10;51.10;;;;;;5038364;28;20267;-57
2021/04/20 03:31:18;;;;;;;;;;;19.10;51.10;;;;;;5029535;28;20517;-57
2021/04/20 03:33:47;;;;;;;;;;;19.10;51.10;;;;;;5047054;28;19932;-56
2021/04/20 03:36:18;;;;;;;;;;;19.10;51.10;;;;;;5047336;28;20742;-56
2021/04/20 03:38:56;;;;;;;;;;;19.00;51.00;;;;;;5047967;28;20536;-56
2021/04/20 03:41:27;;;;;;;;;;;19.00;51.00;;;;;;5035175;28;21927;-57
2021/04/20 03:43:56;;;;;;;;;;;19.00;51.00;;;;;;5047755;28;19929;-56
2021/04/20 03:46:25;;;;;;;;;;;19.00;51.00;;;;;;5049613;28;19931;-57
2021/04/20 03:48:54;;;;;;;;;;;19.00;50.90;;;;;;5046593;28;20423;-57
2021/04/20 03:51:24;;;;;;;;;;;19.00;50.90;;;;;;5042504;28;19924;-57
2021/04/20 03:53:51;;;;;;;;;;;19.00;51.00;;;;;;5047549;28;19935;-56
2021/04/20 03:56:22;;;;;;;;;;;19.00;50.90;;;;;;5047422;28;19932;-56
2021/04/20 03:58:50;;;;;;;;;;;19.00;51.50;;;;;;5057262;28;20397;-56
2021/04/20 04:01:17;;;;;;;;;;;19.00;50.90;;;;;;5050674;28;19925;-56
2021/04/20 04:03:47;;;;;;;;;;;19.00;50.90;;;;;;5050551;28;20942;-56
2021/04/20 04:06:14;;;;;;;;;;;19.00;51.60;;;;;;5047058;28;22190;-56
2021/04/20 04:08:41;;;;;;;;;;;19.00;51.00;;;;;;5041938;28;19933;-56
2021/04/20 04:11:10;;;;;;;;;;;19.00;51.00;;;;;;5045452;28;20508;-55
2021/04/20 04:13:40;;;;;;;;;;;19.00;51.00;;;;;;5051622;28;19924;-55
2021/04/20 04:16:07;;;;;;;;;;;18.90;50.90;;;;;;5040121;28;19932;-55
2021/04/20 04:18:34;;;;;;;;;;;18.90;50.80;;;;;;5048069;28;20489;-55
2021/04/20 04:21:11;;;;;;;;;;;18.90;50.80;;;;;;5050482;28;19916;-54
2021/04/20 04:23:44;;;;;;;;;;;18.90;50.80;;;;;;5046876;28;20026;-55
2021/04/20 04:26:21;;;;;;;;;;;18.90;50.80;;;;;;5049423;28;20405;-55
2021/04/20 04:28:51;;;;;;;;;;;18.90;50.80;;;;;;5042206;28;20529;-55
2021/04/20 04:31:18;;;;;;;;;;;18.90;50.80;;;;;;5039879;28;20207;-58
2021/04/20 04:33:46;;;;;;;;;;;18.90;50.70;;;;;;5048764;28;20312;-58
2021/04/20 04:36:13;;;;;;;;;;;18.90;50.70;;;;;;5029616;28;20389;-55
2021/04/20 04:38:40;;;;;;;;;;;18.90;50.70;;;;;;5033106;28;19933;-55
2021/04/20 04:41:07;;;;;;;;;;;18.80;50.70;;;;;;5041238;28;19947;-56
2021/04/20 04:43:35;;;;;;;;;;;18.90;50.70;;;;;;5030389;28;19924;-55
2021/04/20 04:46:01;;;;;;;;;;;18.80;50.60;;;;;;5037590;28;19925;-55
2021/04/20 04:48:27;;;;;;;;;;;18.80;50.60;;;;;;5046018;28;19931;-56
2021/04/20 04:50:54;;;;;;;;;;;18.80;50.60;;;;;;5031402;28;20429;-55
2021/04/20 04:53:21;;;;;;;;;;;18.80;50.60;;;;;;5039545;28;19972;-56
2021/04/20 04:55:47;;;;;;;;;;;18.80;50.70;;;;;;5045662;28;20628;-55
2021/04/20 04:58:14;;;;;;;;;;;18.80;50.60;;;;;;5032787;28;20696;-55
2021/04/20 05:00:56;;;;;;;;;;;18.80;50.70;;;;;;5029795;28;19975;-58
2021/04/20 05:03:23;;;;;;;;;;;18.80;50.70;;;;;;5046967;28;20660;-58
2021/04/20 05:05:56;;;;;;;;;;;18.80;50.70;;;;;;5041117;28;20373;-57
2021/04/20 05:08:22;;;;;;;;;;;18.80;50.70;;;;;;5034833;28;19933;-58
2021/04/20 05:10:49;;;;;;;;;;;18.80;50.70;;;;;;5052456;28;20476;-60
2021/04/20 05:13:16;;;;;;;;;;;18.80;50.70;;;;;;5033716;28;19925;-58
2021/04/20 05:15:42;;;;;;;;;;;18.80;50.70;;;;;;5048576;28;19925;-55
2021/04/20 05:18:12;;;;;;;;;;;18.80;50.70;;;;;;5048690;28;19933;-56
2021/04/20 05:20:42;;;;;;;;;;;18.70;50.70;;;;;;5039451;28;20305;-55
2021/04/20 05:23:09;;;;;;;;;;;18.80;50.70;;;;;;5043228;28;19944;-56
2021/04/20 05:25:36;;;;;;;;;;;18.80;50.70;;;;;;5034907;28;19979;-56
2021/04/20 05:28:02;;;;;;;;;;;18.80;50.70;;;;;;5042076;28;19925;-55
2021/04/20 05:30:28;;;;;;;;;;;18.80;50.60;;;;;;5042237;28;19925;-56
2021/04/20 05:32:57;;;;;;;;;;;18.70;50.80;;;;;;5042641;28;19933;-61
2021/04/20 05:35:23;;;;;;;;;;;18.70;50.80;;;;;;5049646;28;19940;-57
2021/04/20 05:37:49;;;;;;;;;;;18.70;51.20;;;;;;5039121;28;19933;-56
2021/04/20 05:40:17;;;;;;;;;;;18.70;50.90;;;;;;5040949;28;19925;-60
2021/04/20 05:42:43;;;;;;;;;;;18.70;51.00;;;;;;5040748;28;20953;-61
2021/04/20 05:45:10;;;;;;;;;;;18.70;50.90;;;;;;5041522;28;19926;-61
2021/04/20 05:47:38;;;;;;;;;;;18.80;50.90;;;;;;5025430;28;19929;-61
2021/04/20 05:50:05;;;;;;;;;;;18.80;50.90;;;;;;5035124;28;19936;-62
2021/04/20 05:52:35;;;;;;;;;;;18.80;50.80;;;;;;5051144;28;19933;-61
2021/04/20 05:55:01;;;;;;;;;;;18.70;50.70;;;;;;5047039;28;19932;-60
2021/04/20 05:57:29;;;;;;;;;;;18.70;50.80;;;;;;5047984;28;19929;-53
2021/04/20 05:59:58;;;;;;;;;;;18.70;50.80;;;;;;5051193;28;19929;-53
2021/04/20 06:02:30;;;;;;;;;;;18.70;50.80;;;;;;5049193;28;20289;-55
2021/04/20 06:04:58;;;;;;;;;;;18.80;50.90;;;;;;5048930;28;20289;-53
2021/04/20 06:07:25;;;;;;;;;;;18.70;50.80;;;;;;5038905;28;20326;-54
2021/04/20 06:10:16;;;;;;;;;;;18.70;50.80;;;;;;5047921;28;20404;-53
2021/04/20 06:12:42;;;;;;;;;;;18.70;50.70;;;;;;5048717;28;19925;-53
2021/04/20 06:15:09;;;;;;;;;;;18.70;50.80;;;;;;5046487;28;19940;-54
2021/04/20 06:17:39;;;;;;;;;;;18.70;51.50;;;;;;5051756;28;19932;-55
2021/04/20 06:20:06;;;;;;;;;;;18.70;51.20;;;;;;5049549;28;19925;-55
2021/04/20 06:22:33;;;;;;;;;;;18.70;51.20;;;;;;5050231;28;19931;-54
2021/04/20 06:24:59;;;;;;;;;;;18.70;51.20;;;;;;5050111;28;20267;-54
2021/04/20 06:27:26;;;;;;;;;;;18.70;51.20;;;;;;5048245;28;19928;-54
2021/04/20 06:29:52;;;;;;;;;;;18.70;51.00;;;;;;5051065;28;19932;-55
2021/04/20 06:32:19;;;;;;;;;;;18.70;51.10;;;;;;5030253;28;19933;-56
2021/04/20 06:34:45;;;;;;;;;;;18.70;51.40;;;;;;5041146;28;19929;-55
2021/04/20 06:37:12;;;;;;;;;;;18.70;51.20;;;;;;5034493;28;20566;-60
2021/04/20 06:39:38;;;;;;;;;;;18.70;51.20;;;;;;5038272;28;19936;-61
2021/04/20 06:42:15;;;;;;;;;;;18.70;51.30;;;;;;5045978;28;19929;-60
2021/04/20 06:44:45;;;;;;;;;;;18.70;51.20;;;;;;5041458;28;19940;-61
2021/04/20 06:47:30;;;;;;;;;;;18.70;51.10;;;;;;5044146;28;19951;-55
2021/04/20 06:50:06;;;;;;;;;;;18.80;51.20;;;;;;5017808;28;19932;-55
2021/04/20 06:52:37;;;;;;;;;;;18.80;51.20;;;;;;5046408;28;19925;-55
2021/04/20 06:55:10;;;;;;;;;;;18.70;51.10;;;;;;5041944;28;19924;-54
2021/04/20 06:57:55;;;;;;;;;;;18.70;51.00;;;;;;5043652;28;19940;-55
2021/04/20 07:00:25;;;;;;;;;;;18.80;51.10;;;;;;5041675;28;20678;-55
2021/04/20 07:03:10;;;;;;;;;;;18.80;51.10;;;;;;5038536;28;19929;-56
2021/04/20 07:05:39;;;;;;;;;;;18.80;51.00;;;;;;5037179;28;19933;-59
2021/04/20 07:08:11;;;;;;;;;;;18.80;51.30;;;;;;5043164;28;20289;-60
2021/04/20 07:10:38;;;;;;;;;;;18.80;51.90;;;;;;5032730;28;19932;-55
2021/04/20 07:13:07;;;;;;;;;;;18.90;52.20;;;;;;5031397;28;19929;-56
2021/04/20 07:15:35;;;;;;;;;;;19.00;51.60;;;;;;5021448;28;19933;-54
2021/04/20 07:18:20;;;;;;;;;;;18.90;51.40;;;;;;5049175;28;19932;-54
2021/04/20 07:21:01;;;;;;;;;;;18.90;51.10;;;;;;5044186;28;20918;-55
2021/04/20 07:23:46;;;;;;;;;;;18.90;50.90;;;;;;5034073;28;20302;-56
2021/04/20 07:26:31;;;;;;;;;;;18.90;50.80;;;;;;5035145;28;19955;-56
2021/04/20 07:29:15;;;;;;;;;;;18.90;50.70;;;;;;5010777;28;22035;-56
2021/04/20 07:32:06;;;;;;;;;;;19.00;50.60;;;;;;5044061;28;20377;-55
2021/04/20 07:34:51;;;;;;;;;;;19.00;50.40;;;;;;5028906;28;20555;-56
2021/04/20 07:37:37;;;;;;;;;;;19.10;50.40;;;;;;5031729;28;21498;-57
2021/04/20 07:40:15;;;;;;;;;;;19.10;50.30;;;;;;5020419;28;20554;-56
2021/04/20 07:43:00;;;;;;;;;;;19.10;50.20;;;;;;5035762;28;19932;-55
2021/04/20 07:45:26;;;;;;;;;;;19.10;50.10;;;;;;5004436;28;21876;-56
2021/04/20 07:47:58;;;;;;;;;;;19.20;50.10;;;;;;5037393;28;19932;-57
2021/04/20 07:50:35;;;;;;;;;;;19.20;50.00;;;;;;5038076;28;19943;-54
2021/04/20 07:53:09;;;;;;;;;;;19.20;50.00;;;;;;5041138;28;19925;-56
2021/04/20 07:55:38;;;;;;;;;;;19.30;51.10;;;;;;5041337;28;19924;-56
2021/04/20 07:58:09;;;;;;;;;;;19.40;52.40;;;;;;5027590;28;20392;-54
2021/04/20 08:00:37;;;;;;;;;;;19.50;52.70;;;;;;5037375;28;19929;-53
2021/04/20 08:03:03;;;;;;;;;;;19.60;52.90;;;;;;5044802;28;20443;-53
2021/04/20 08:05:54;;;;;;;;;;;19.60;52.70;;;;;;5042940;28;19924;-53
2021/04/20 08:08:27;;;;;;;;;;;19.70;52.30;;;;;;5043828;28;19936;-54
2021/04/20 08:10:54;;;;;;;;;;;19.80;52.20;;;;;;5044787;28;19933;-53
2021/04/20 08:13:34;;;;;;;;;;;19.80;52.00;;;;;;5044837;28;19932;-56
2021/04/20 08:16:04;;;;;;;;;;;19.80;51.90;;;;;;5044953;28;19940;-53
2021/04/20 08:18:42;;;;;;;;;;;19.90;51.70;;;;;;5044312;28;19925;-54
2021/04/20 08:21:11;;;;;;;;;;;20.00;51.80;;;;;;5046063;28;19940;-53
2021/04/20 08:23:40;;;;;;;;;;;20.00;51.50;;;;;;5043323;28;19925;-53
2021/04/20 08:26:10;;;;;;;;;;;20.00;51.40;;;;;;5043635;28;19964;-53
2021/04/20 08:29:00;;;;;;;;;;;20.10;51.80;;;;;;5041458;28;20014;-55
2021/04/20 08:31:36;;;;;;;;;;;20.10;50.90;;;;;;5013915;28;25556;-55
2021/04/20 08:34:10;;;;;;;;;;;20.10;50.90;;;;;;5044617;28;19933;-53
2021/04/20 08:36:45;;;;;;;;;;;20.20;50.70;;;;;;5044131;28;19987;-53
2021/04/20 08:39:18;;;;;;;;;;;20.20;50.70;;;;;;5043370;28;19987;-54
2021/04/20 08:41:55;;;;;;;;;;;20.20;50.60;;;;;;5036920;28;20299;-54
2021/04/20 08:44:37;;;;;;;;;;;20.30;50.90;;;;;;5041303;28;20724;-54
2021/04/20 08:47:04;;;;;;;;;;;20.30;50.90;;;;;;5042773;28;20290;-53
2021/04/20 08:49:43;;;;;;;;;;;20.40;51.00;;;;;;5045992;28;20712;-54
2021/04/20 08:52:17;;;;;;;;;;;20.40;50.40;;;;;;5041718;28;19956;-54
2021/04/20 08:54:46;;;;;;;;;;;20.40;50.40;;;;;;5044756;28;19931;-55
2021/04/20 08:57:12;;;;;;;;;;;20.40;50.30;;;;;;5044490;28;20582;-55
2021/04/20 08:59:44;;;;;;;;;;;20.50;50.20;;;;;;5046759;28;20320;-53
2021/04/20 09:02:16;;;;;;;;;;;20.50;50.20;;;;;;5042663;28;19925;-55
2021/04/20 09:04:42;;;;;;;;;;;20.50;50.10;;;;;;5043959;28;19932;-54
2021/04/20 09:07:27;;;;;;;;;;;20.50;50.20;;;;;;5042021;28;20413;-55
2021/04/20 09:09:55;;;;;;;;;;;20.60;50.40;;;;;;5030283;28;20370;-53
2021/04/20 09:12:22;;;;;;;;;;;20.60;50.20;;;;;;5042457;28;19940;-53
2021/04/20 09:14:49;;;;;;;;;;;20.60;50.30;;;;;;5044726;28;19924;-55
2021/04/20 09:17:30;;;;;;;;;;;20.70;50.10;;;;;;5033673;28;20486;-53
2021/04/20 09:19:57;;;;;;;;;;;20.70;50.00;;;;;;5045960;28;19925;-54
2021/04/20 09:22:44;;;;;;;;;;;20.70;50.00;;;;;;5043691;28;19948;-53
2021/04/20 09:25:17;;;;;;;;;;;20.70;49.50;;;;;;5035484;28;19938;-53
2021/04/20 09:28:01;;;;;;;;;;;20.70;49.40;;;;;;5016960;28;19933;-53
2021/04/20 09:30:28;;;;;;;;;;;20.70;49.30;;;;;;5005832;28;19925;-53
2021/04/20 09:33:06;;;;;;;;;;;20.70;49.30;;;;;;5025206;28;19955;-52
2021/04/20 09:35:34;;;;;;;;;;;20.60;49.20;;;;;;5017782;28;19925;-54
2021/04/20 09:38:02;;;;;;;;;;;20.70;49.30;;;;;;5026145;28;19924;-53
2021/04/20 09:40:30;;;;;;;;;;;20.70;49.30;;;;;;5033201;28;20498;-54
2021/04/20 09:43:00;;;;;;;;;;;20.70;49.30;;;;;;5020225;28;19929;-55
2021/04/20 09:45:33;;;;;;;;;;;20.70;49.20;;;;;;5018956;28;19933;-52
2021/04/20 09:48:08;;;;;;;;;;;20.70;49.20;;;;;;5014746;28;19933;-53
2021/04/20 09:50:40;;;;;;;;;;;20.70;49.10;;;;;;5014630;28;19929;-55
2021/04/20 09:53:24;;;;;;;;;;;20.70;49.20;;;;;;5016438;28;19932;-53
2021/04/20 09:55:57;;;;;;;;;;;20.70;49.20;;;;;;5023575;28;20752;-55
2021/04/20 09:58:25;;;;;;;;;;;20.70;49.10;;;;;;5029693;28;20695;-55
2021/04/20 10:00:53;;;;;;;;;;;20.70;49.10;;;;;;5027190;28;19925;-54
2021/04/20 10:03:35;;;;;;;;;;;20.80;49.10;;;;;;5024626;28;19925;-54
2021/04/20 10:06:11;;;;;;;;;;;20.80;49.00;;;;;;5025567;28;19944;-54
2021/04/20 10:08:52;;;;;;;;;;;20.80;49.00;;;;;;5031332;28;19956;-53
2021/04/20 10:11:24;;;;;;;;;;;20.80;49.00;;;;;;5018165;28;20392;-54
2021/04/20 10:14:11;;;;;;;;;;;20.80;49.00;;;;;;5015024;28;20593;-54
2021/04/20 10:16:37;;;;;;;;;;;20.80;49.00;;;;;;5025199;28;19925;-52
2021/04/20 10:19:13;;;;;;;;;;;20.80;49.00;;;;;;5012073;28;19949;-53
2021/04/20 10:21:58;;;;;;;;;;;20.90;49.00;;;;;;5024001;28;19936;-55
2021/04/20 10:24:25;;;;;;;;;;;20.90;49.00;;;;;;5006371;28;20813;-55
2021/04/20 10:27:12;;;;;;;;;;;21.00;49.10;;;;;;5044435;28;20373;-55
2021/04/20 10:30:00;;;;;;;;;;;21.20;49.20;;;;;;5045680;28;19925;-54
2021/04/20 10:32:33;;;;;;;;;;;22.50;46.90;;;;;;5013671;28;20266;-55
2021/04/20 10:35:00;;;;;;;;;;;23.30;45.30;;;;;;5040138;28;19979;-56
2021/04/20 10:37:40;;;;;;;;;;;23.70;44.60;;;;;;5047273;28;19936;-56
2021/04/20 10:40:08;;;;;;;;;;;24.10;44.40;;;;;;5046664;28;19935;-55
2021/04/20 10:42:36;;;;;;;;;;;24.40;44.00;;;;;;5028220;28;20294;-56
2021/04/20 10:45:09;;;;;;;;;;;24.80;43.50;;;;;;5026708;28;20297;-57
2021/04/20 10:47:38;;;;;;;;;;;25.00;43.30;;;;;;5044602;28;20293;-58
2021/04/20 10:50:35;;;;;;;;;;;25.20;43.30;;;;;;5042904;28;19932;-57
2021/04/20 10:53:14;;;;;;;;;;;25.40;43.10;;;;;;5009714;28;22566;-57
2021/04/20 10:56:02;;;;;;;;;;;25.50;42.80;;;;;;5044966;28;19933;-57
2021/04/20 10:58:29;;;;;;;;;;;25.70;42.80;;;;;;5026972;28;21372;-59
2021/04/20 11:00:56;;;;;;;;;;;25.90;42.60;;;;;;5040983;28;19939;-56
2021/04/20 11:03:23;;;;;;;;;;;26.10;42.40;;;;;;5037095;28;20017;-60
2021/04/20 11:05:50;;;;;;;;;;;26.20;42.30;;;;;;5044848;28;19924;-58
2021/04/20 11:08:36;;;;;;;;;;;26.40;42.10;;;;;;5045607;28;19952;-58
2021/04/20 11:11:04;;;;;;;;;;;26.60;42.20;;;;;;5033965;28;21647;-58
2021/04/20 11:13:36;;;;;;;;;;;26.60;41.90;;;;;;5046407;28;19929;-57
2021/04/20 11:16:05;;;;;;;;;;;26.80;41.90;;;;;;5047334;28;19929;-60
2021/04/20 11:18:34;;;;;;;;;;;26.80;41.90;;;;;;5045144;28;19925;-59
2021/04/20 11:21:09;;;;;;;;;;;26.90;42.10;;;;;;5043792;28;20369;-60
2021/04/20 11:23:43;;;;;;;;;;;27.10;41.30;;;;;;5049537;28;19933;-58
2021/04/20 11:26:13;;;;;;;;;;;27.20;41.30;;;;;;5042541;28;20108;-57
2021/04/20 11:28:43;;;;;;;;;;;27.30;41.50;;;;;;5041758;28;19932;-58
2021/04/20 11:31:20;;;;;;;;;;;27.40;41.40;;;;;;5046236;28;20540;-59
2021/04/20 11:33:46;;;;;;;;;;;27.60;41.30;;;;;;5036223;28;20561;-58
2021/04/20 11:36:17;;;;;;;;;;;27.70;41.10;;;;;;5044761;28;19931;-58
2021/04/20 11:38:48;;;;;;;;;;;27.80;40.90;;;;;;5042606;28;20389;-58
2021/04/20 11:41:18;;;;;;;;;;;27.90;40.90;;;;;;5046320;28;20816;-57
2021/04/20 11:43:51;;;;;;;;;;;28.00;40.80;;;;;;5039670;28;20277;-57
2021/04/20 11:46:21;;;;;;;;;;;27.90;40.70;;;;;;5045971;28;20408;-62
2021/04/20 11:48:50;;;;;;;;;;;27.20;43.40;;;;;;5035940;28;20213;-57
2021/04/20 11:51:16;;;;;;;;;;;26.10;40.90;;;;;;5043828;28;22162;-57
2021/04/20 11:53:45;;;;;;;;;;;25.10;42.20;;;;;;5028276;28;20370;-58
2021/04/20 11:56:12;;;;;;;;;;;24.80;43.20;;;;;;5044690;28;19947;-58
2021/04/20 11:58:40;;;;;;;;;;;24.60;43.80;;;;;;5042049;28;20565;-58
2021/04/20 12:01:12;;;;;;;;;;;24.40;44.10;;;;;;5042914;28;20369;-62
2021/04/20 12:03:50;;;;;;;;;;;24.40;46.00;;;;;;5035642;28;19929;-63
2021/04/20 12:06:16;;;;;;;;;;;24.70;46.60;;;;;;5045814;28;21020;-61
2021/04/20 12:08:43;;;;;;;;;;;24.90;47.10;;;;;;5032826;28;19925;-63
2021/04/20 12:11:12;;;;;;;;;;;25.00;47.10;;;;;;5041056;28;19924;-59
2021/04/20 12:13:39;;;;;;;;;;;25.10;47.70;;;;;;5035902;28;19925;-60
2021/04/20 12:16:08;;;;;;;;;;;25.20;47.40;;;;;;5033881;28;20068;-60
2021/04/20 12:18:34;;;;;;;;;;;25.20;47.50;;;;;;5044132;28;19925;-59
2021/04/20 12:21:05;;;;;;;;;;;25.20;47.70;;;;;;5044666;28;19940;-61
2021/04/20 12:23:33;;;;;;;;;;;25.20;47.90;;;;;;5032880;28;19999;-62
2021/04/20 12:26:00;;;;;;;;;;;25.20;48.00;;;;;;5048371;28;20366;-61
2021/04/20 12:28:27;;;;;;;;;;;25.30;47.60;;;;;;5041456;28;19925;-61
2021/04/20 12:30:54;;;;;;;;;;;25.30;47.80;;;;;;5047696;28;19925;-60
2021/04/20 12:33:21;;;;;;;;;;;25.40;47.70;;;;;;5045072;28;20332;-58
2021/04/20 12:35:47;;;;;;;;;;;25.40;47.70;;;;;;5043746;28;19929;-64
2021/04/20 12:38:18;;;;;;;;;;;25.40;47.70;;;;;;5029450;28;20254;-62
2021/04/20 12:40:44;;;;;;;;;;;25.40;47.60;;;;;;5041903;28;19928;-62
2021/04/20 12:43:12;;;;;;;;;;;25.40;48.40;;;;;;5040947;28;19939;-61
2021/04/20 12:45:38;;;;;;;;;;;25.40;47.50;;;;;;5039076;28;19933;-63
2021/04/20 12:48:05;;;;;;;;;;;25.30;47.60;;;;;;5034750;28;19936;-63
2021/04/20 12:50:36;;;;;;;;;;;25.40;47.50;;;;;;5030838;28;19932;-64
2021/04/20 12:53:04;;;;;;;;;;;25.40;48.10;;;;;;5043931;28;19932;-64
2021/04/20 12:55:31;;;;;;;;;;;25.40;47.00;;;;;;5040336;28;19986;-63
2021/04/20 12:57:59;;;;;;;;;;;25.40;48.00;;;;;;5042536;28;19974;-64
2021/04/20 13:00:26;;;;;;;;;;;25.40;47.50;;;;;;5035809;28;21341;-63
2021/04/20 13:02:55;;;;;;;;;;;25.40;47.80;;;;;;5031354;28;19941;-63
2021/04/20 13:05:23;;;;;;;;;;;25.40;47.90;;;;;;5021322;28;19925;-64
2021/04/20 13:07:50;;;;;;;;;;;25.40;48.30;;;;;;5036876;28;19925;-62
2021/04/20 13:10:20;;;;;;;;;;;25.40;47.60;;;;;;5019843;28;20575;-62
2021/04/20 13:12:52;;;;;;;;;;;25.50;47.10;;;;;;5024232;28;20801;-64
2021/04/20 13:15:20;;;;;;;;;;;25.50;47.40;;;;;;5039236;28;20416;-60
2021/04/20 13:17:47;;;;;;;;;;;25.50;48.20;;;;;;5025147;28;20295;-62
2021/04/20 13:20:18;;;;;;;;;;;25.50;47.80;;;;;;5041462;28;19975;-60
2021/04/20 13:22:45;;;;;;;;;;;25.50;47.00;;;;;;5037259;28;20594;-62
2021/04/20 13:25:12;;;;;;;;;;;25.50;46.90;;;;;;5042140;28;20306;-63
2021/04/20 13:27:42;;;;;;;;;;;25.50;47.80;;;;;;5042539;28;19928;-62
2021/04/20 13:30:09;;;;;;;;;;;25.20;44.70;;;;;;5047404;28;19925;-61
2021/04/20 13:32:36;;;;;;;;;;;24.80;45.50;;;;;;5037491;28;20022;-62
2021/04/20 13:35:04;;;;;;;;;;;24.70;46.00;;;;;;5043072;28;20268;-62
2021/04/20 13:37:31;;;;;;;;;;;24.50;46.80;;;;;;5042503;28;19931;-62
2021/04/20 13:40:05;;;;;;;;;;;24.50;46.30;;;;;;5050204;28;20266;-62
2021/04/20 13:42:32;;;;;;;;;;;24.40;46.50;;;;;;5039765;28;19931;-56
2021/04/20 13:45:03;;;;;;;;;;;24.40;46.50;;;;;;5047676;28;19952;-57
2021/04/20 13:47:32;;;;;;;;;;;24.30;46.80;;;;;;5038491;28;19929;-56
2021/04/20 13:50:24;;;;;;;;;;;24.30;46.80;;;;;;5047587;28;19925;-59
2021/04/20 13:52:52;;;;;;;;;;;24.30;49.00;;;;;;5039089;28;21655;-60
2021/04/20 13:55:27;;;;;;;;;;;24.30;49.10;;;;;;5039203;28;19925;-57
2021/04/20 13:57:56;;;;;;;;;;;24.30;47.30;;;;;;5033910;28;20727;-59
2021/04/20 14:00:35;;;;;;;;;;;24.30;47.80;;;;;;5037244;28;20504;-58
2021/04/20 14:03:03;;;;;;;;;;;24.20;47.40;;;;;;5026226;28;20469;-58
2021/04/20 14:05:33;;;;;;;;;;;24.10;47.70;;;;;;5040756;28;19932;-56
2021/04/20 14:08:04;;;;;;;;;;;24.20;47.50;;;;;;5047465;28;19956;-59
2021/04/20 14:10:31;;;;;;;;;;;24.10;47.60;;;;;;5039127;28;20688;-59
2021/04/20 14:13:03;;;;;;;;;;;24.80;47.00;;;;;;5042123;28;19955;-61
2021/04/20 14:15:37;;;;;;;;;;;25.80;45.10;;;;;;5038820;28;19925;-60
2021/04/20 14:18:11;;;;;;;;;;;26.60;43.80;;;;;;5048743;28;20458;-59
2021/04/20 14:20:39;;;;;;;;;;;27.10;43.10;;;;;;5037239;28;19924;-62
2021/04/20 14:23:07;;;;;;;;;;;27.40;42.80;;;;;;5044975;28;19948;-63
2021/04/20 14:25:34;;;;;;;;;;;27.70;42.40;;;;;;5037958;28;20382;-63
2021/04/20 14:28:01;;;;;;;;;;;27.90;42.10;;;;;;5055874;28;19959;-61
2021/04/20 14:30:27;;;;;;;;;;;28.00;42.00;;;;;;5049018;28;20369;-62
2021/04/20 14:32:54;;;;;;;;;;;28.10;41.80;;;;;;5052051;28;20289;-60